sensor_id;sensor_type;location;lat;lon;timestamp;pressure;altitude;pressure_sealevel;temperature;humidity
51986;BME280;38002;53.296;6.600;2022-09-09T00:04:30;100906.88;;;15.18;88.27
51986;BME280;38002;53.296;6.600;2022-09-09T00:20:01;100898.09;;;15.08;88.03
51986;BME280;38002;53.296;6.600;2022-09-09T00:25:10;100899.88;;;15.01;87.94
51986;BME280;38002;53.296;6.600;2022-09-09T00:30:19;100889.03;;;14.92;87.98
51986;BME280;38002;53.296;6.600;2022-09-09T00:40:34;100884.41;;;14.78;88.10
51986;BME280;38002;53.296;6.600;2022-09-09T00:45:52;100892.34;;;14.73;87.91
51986;BME280;38002;53.296;6.600;2022-09-09T00:50:57;100879.38;;;14.67;88.10
51986;BME280;38002;53.296;6.600;2022-09-09T00:56:14;100881.88;;;14.62;87.85
51986;BME280;38002;53.296;6.600;2022-09-09T01:01:17;100884.09;;;14.59;88.12
51986;BME280;38002;53.296;6.600;2022-09-09T01:11:27;100869.31;;;14.53;88.05
51986;BME280;38002;53.296;6.600;2022-09-09T01:16:29;100869.66;;;14.50;88.37
51986;BME280;38002;53.296;6.600;2022-09-09T01:27:01;100861.38;;;14.43;87.89
51986;BME280;38002;53.296;6.600;2022-09-09T01:37:40;100864.66;;;14.39;88.34
51986;BME280;38002;53.296;6.600;2022-09-09T01:42:42;100871.50;;;14.35;88.04
51986;BME280;38002;53.296;6.600;2022-09-09T01:47:43;100865.91;;;14.28;88.36
51986;BME280;38002;53.296;6.600;2022-09-09T01:52:46;100854.72;;;14.23;87.98
51986;BME280;38002;53.296;6.600;2022-09-09T02:08:20;100862.88;;;14.08;88.34
51986;BME280;38002;53.296;6.600;2022-09-09T02:13:24;100851.47;;;14.05;88.41
51986;BME280;38002;53.296;6.600;2022-09-09T02:18:29;100860.84;;;14.02;88.02
51986;BME280;38002;53.296;6.600;2022-09-09T02:23:31;100858.69;;;13.98;88.16
51986;BME280;38002;53.296;6.600;2022-09-09T02:28:34;100863.50;;;13.96;88.68
51986;BME280;38002;53.296;6.600;2022-09-09T02:33:55;100870.00;;;13.95;88.52
51986;BME280;38002;53.296;6.600;2022-09-09T02:38:57;100855.16;;;13.89;88.85
51986;BME280;38002;53.296;6.600;2022-09-09T02:43:57;100865.38;;;13.95;88.81
51986;BME280;38002;53.296;6.600;2022-09-09T02:49:25;100861.41;;;13.98;88.86
51986;BME280;38002;53.296;6.600;2022-09-09T02:54:31;100863.59;;;14.02;88.98
51986;BME280;38002;53.296;6.600;2022-09-09T02:59:33;100859.66;;;14.05;88.99
51986;BME280;38002;53.296;6.600;2022-09-09T03:04:33;100860.50;;;14.05;89.49
51986;BME280;38002;53.296;6.600;2022-09-09T03:09:34;100852.09;;;14.07;89.54
51986;BME280;38002;53.296;6.600;2022-09-09T03:14:34;100852.59;;;14.11;89.67
51986;BME280;38002;53.296;6.600;2022-09-09T03:19:35;100847.78;;;14.13;89.29
51986;BME280;38002;53.296;6.600;2022-09-09T03:24:36;100851.19;;;14.15;89.27
51986;BME280;38002;53.296;6.600;2022-09-09T03:29:36;100849.97;;;14.17;89.47
51986;BME280;38002;53.296;6.600;2022-09-09T03:34:37;100854.41;;;14.18;89.66
51986;BME280;38002;53.296;6.600;2022-09-09T03:39:41;100852.31;;;14.20;89.28
51986;BME280;38002;53.296;6.600;2022-09-09T03:44:41;100855.75;;;14.22;89.67
51986;BME280;38002;53.296;6.600;2022-09-09T03:49:42;100854.72;;;14.23;89.70
51986;BME280;38002;53.296;6.600;2022-09-09T03:54:42;100851.97;;;14.23;89.81
51986;BME280;38002;53.296;6.600;2022-09-09T03:59:43;100857.06;;;14.26;89.28
51986;BME280;38002;53.296;6.600;2022-09-09T04:04:43;100854.97;;;14.28;89.50
51986;BME280;38002;53.296;6.600;2022-09-09T04:09:46;100858.38;;;14.30;89.14
51986;BME280;38002;53.296;6.600;2022-09-09T04:14:47;100854.63;;;14.31;89.62
51986;BME280;38002;53.296;6.600;2022-09-09T04:19:47;100848.94;;;14.33;89.27
51986;BME280;38002;53.296;6.600;2022-09-09T04:24:48;100860.75;;;14.33;89.59
51986;BME280;38002;53.296;6.600;2022-09-09T04:29:48;100865.69;;;14.38;90.04
51986;BME280;38002;53.296;6.600;2022-09-09T04:34:49;100865.34;;;14.41;90.07
51986;BME280;38002;53.296;6.600;2022-09-09T04:39:49;100868.53;;;14.44;89.36
51986;BME280;38002;53.296;6.600;2022-09-09T04:44:49;100870.03;;;14.47;89.36
51986;BME280;38002;53.296;6.600;2022-09-09T04:49:50;100867.78;;;14.50;89.51
51986;BME280;38002;53.296;6.600;2022-09-09T04:54:52;100864.69;;;14.53;89.67
51986;BME280;38002;53.296;6.600;2022-09-09T04:59:54;100862.59;;;14.56;91.09
51986;BME280;38002;53.296;6.600;2022-09-09T05:04:54;100859.47;;;14.59;89.58
51986;BME280;38002;53.296;6.600;2022-09-09T05:09:55;100860.31;;;14.59;89.74
51986;BME280;38002;53.296;6.600;2022-09-09T05:14:56;100859.28;;;14.60;89.97
51986;BME280;38002;53.296;6.600;2022-09-09T05:19:57;100866.25;;;14.63;89.88
51986;BME280;38002;53.296;6.600;2022-09-09T05:24:57;100860.31;;;14.59;90.35
51986;BME280;38002;53.296;6.600;2022-09-09T05:29:58;100873.16;;;14.59;90.27
51986;BME280;38002;53.296;6.600;2022-09-09T05:34:59;100876.94;;;14.58;90.11
51986;BME280;38002;53.296;6.600;2022-09-09T05:39:59;100873.16;;;14.59;90.03
51986;BME280;38002;53.296;6.600;2022-09-09T05:45:00;100881.19;;;14.60;89.75
51986;BME280;38002;53.296;6.600;2022-09-09T05:50:01;100875.88;;;14.59;90.23
51986;BME280;38002;53.296;6.600;2022-09-09T05:55:01;100874.38;;;14.56;90.79
51986;BME280;38002;53.296;6.600;2022-09-09T06:00:05;100879.69;;;14.58;90.33
51986;BME280;38002;53.296;6.600;2022-09-09T06:05:05;100884.09;;;14.59;90.09
51986;BME280;38002;53.296;6.600;2022-09-09T06:10:06;100883.28;;;14.58;90.67
51986;BME280;38002;53.296;6.600;2022-09-09T06:15:07;100891.28;;;14.60;90.21
51986;BME280;38002;53.296;6.600;2022-09-09T06:20:09;100885.41;;;14.63;91.97
51986;BME280;38002;53.296;6.600;2022-09-09T06:25:09;100886.94;;;14.65;90.38
51986;BME280;38002;53.296;6.600;2022-09-09T06:30:10;100895.63;;;14.69;90.72
51986;BME280;38002;53.296;6.600;2022-09-09T06:35:11;100900.72;;;14.72;90.24
51986;BME280;38002;53.296;6.600;2022-09-09T06:40:11;100887.78;;;14.80;90.08
51986;BME280;38002;53.296;6.600;2022-09-09T06:45:12;100890.63;;;14.87;90.17
51986;BME280;38002;53.296;6.600;2022-09-09T06:50:12;100882.72;;;14.92;90.00
51986;BME280;38002;53.296;6.600;2022-09-09T06:55:14;100884.31;;;15.01;90.03
51986;BME280;38002;53.296;6.600;2022-09-09T07:00:16;100891.56;;;15.09;89.68
51986;BME280;38002;53.296;6.600;2022-09-09T07:05:17;100885.69;;;15.12;89.67
51986;BME280;38002;53.296;6.600;2022-09-09T07:10:17;100895.06;;;15.17;89.69
51986;BME280;38002;53.296;6.600;2022-09-09T07:15:18;100886.72;;;15.25;89.27
51986;BME280;38002;53.296;6.600;2022-09-09T07:20:19;100889.63;;;15.38;89.05
51986;BME280;38002;53.296;6.600;2022-09-09T07:25:20;100886.69;;;15.55;89.31
51986;BME280;38002;53.296;6.600;2022-09-09T07:30:23;100895.72;;;15.70;89.59
51986;BME280;38002;53.296;6.600;2022-09-09T07:35:23;100892.00;;;15.77;89.39
51986;BME280;38002;53.296;6.600;2022-09-09T07:40:24;100889.78;;;15.87;89.00
51986;BME280;38002;53.296;6.600;2022-09-09T07:45:25;100889.84;;;15.94;88.93
51986;BME280;38002;53.296;6.600;2022-09-09T07:50:28;100888.06;;;16.08;88.93
51986;BME280;38002;53.296;6.600;2022-09-09T07:55:28;100888.38;;;16.19;88.66
51986;BME280;38002;53.296;6.600;2022-09-09T08:00:29;100890.53;;;16.24;88.58
51986;BME280;38002;53.296;6.600;2022-09-09T08:05:30;100904.53;;;16.35;88.69
51986;BME280;38002;53.296;6.600;2022-09-09T08:10:30;100894.16;;;16.52;87.92
51986;BME280;38002;53.296;6.600;2022-09-09T08:15:31;100901.25;;;16.68;88.32
51986;BME280;38002;53.296;6.600;2022-09-09T08:20:32;100898.59;;;16.81;87.81
51986;BME280;38002;53.296;6.600;2022-09-09T08:25:32;100900.56;;;16.94;87.68
51986;BME280;38002;53.296;6.600;2022-09-09T08:30:34;100903.59;;;17.05;87.45
51986;BME280;38002;53.296;6.600;2022-09-09T08:35:35;100909.38;;;17.17;86.96
51986;BME280;38002;53.296;6.600;2022-09-09T08:40:40;100916.38;;;17.26;86.97
51986;BME280;38002;53.296;6.600;2022-09-09T08:45:59;100916.59;;;17.31;85.97
51986;BME280;38002;53.296;6.600;2022-09-09T08:51:04;100915.56;;;17.39;86.79
51986;BME280;38002;53.296;6.600;2022-09-09T08:56:11;100918.38;;;17.52;86.46
51986;BME280;38002;53.296;6.600;2022-09-09T09:01:35;100919.34;;;17.79;86.82
51986;BME280;38002;53.296;6.600;2022-09-09T09:12:23;100915.41;;;18.21;86.02
51986;BME280;38002;53.296;6.600;2022-09-09T09:17:26;100935.75;;;18.33;85.38
51986;BME280;38002;53.296;6.600;2022-09-09T09:22:50;100928.16;;;18.68;85.16
51986;BME280;38002;53.296;6.600;2022-09-09T09:28:12;100927.28;;;18.87;80.88
51986;BME280;38002;53.296;6.600;2022-09-09T09:33:25;100927.91;;;18.82;83.94
51986;BME280;38002;53.296;6.600;2022-09-09T09:38:28;100942.13;;;18.79;84.34
51986;BME280;38002;53.296;6.600;2022-09-09T09:43:34;100943.41;;;18.70;84.14
51986;BME280;38002;53.296;6.600;2022-09-09T09:48:35;100937.69;;;18.65;84.36
51986;BME280;38002;53.296;6.600;2022-09-09T09:53:37;100936.41;;;18.68;83.76
51986;BME280;38002;53.296;6.600;2022-09-09T10:03:51;100935.78;;;18.85;82.68
51986;BME280;38002;53.296;6.600;2022-09-09T10:08:52;100935.50;;;19.00;83.62
51986;BME280;38002;53.296;6.600;2022-09-09T10:19:37;100945.88;;;19.04;82.25
51986;BME280;38002;53.296;6.600;2022-09-09T10:30:14;100950.81;;;18.83;82.93
51986;BME280;38002;53.296;6.600;2022-09-09T10:35:24;100958.22;;;18.89;82.90
51986;BME280;38002;53.296;6.600;2022-09-09T10:45:50;100950.78;;;18.96;82.08
51986;BME280;38002;53.296;6.600;2022-09-09T10:51:29;100942.94;;;18.99;78.91
51986;BME280;38002;53.296;6.600;2022-09-09T10:56:33;100946.56;;;18.87;81.60
51986;BME280;38002;53.296;6.600;2022-09-09T11:01:41;100946.34;;;18.88;81.56
51986;BME280;38002;53.296;6.600;2022-09-09T11:06:48;100947.97;;;19.16;81.72
51986;BME280;38002;53.296;6.600;2022-09-09T11:11:54;100954.78;;;19.13;81.38
51986;BME280;38002;53.296;6.600;2022-09-09T11:17:06;100947.72;;;19.30;81.28
51986;BME280;38002;53.296;6.600;2022-09-09T11:22:30;100941.19;;;20.14;78.53
51986;BME280;38002;53.296;6.600;2022-09-09T11:33:18;100947.22;;;20.85;78.75
51986;BME280;38002;53.296;6.600;2022-09-09T11:38:29;100942.38;;;21.42;77.06
51986;BME280;38002;53.296;6.600;2022-09-09T11:44:17;100943.69;;;22.05;73.89
51986;BME280;38002;53.296;6.600;2022-09-09T11:49:42;100927.16;;;22.40;71.06
51986;BME280;38002;53.296;6.600;2022-09-09T11:54:47;100933.63;;;22.87;70.83
51986;BME280;38002;53.296;6.600;2022-09-09T11:59:52;100943.53;;;23.30;72.63
51986;BME280;38002;53.296;6.600;2022-09-09T12:05:07;100936.75;;;23.37;69.08
51986;BME280;38002;53.296;6.600;2022-09-09T12:10:30;100939.16;;;22.64;64.04
51986;BME280;38002;53.296;6.600;2022-09-09T12:15:33;100920.91;;;22.33;72.19
51986;BME280;38002;53.296;6.600;2022-09-09T12:20:35;100928.53;;;22.49;71.75
51986;BME280;38002;53.296;6.600;2022-09-09T12:35:57;100930.16;;;21.49;70.15
51986;BME280;38002;53.296;6.600;2022-09-09T12:40:58;100926.41;;;21.44;72.09
51986;BME280;38002;53.296;6.600;2022-09-09T12:46:12;100927.13;;;21.39;66.13
51986;BME280;38002;53.296;6.600;2022-09-09T12:56:32;100924.50;;;21.26;70.62
51986;BME280;38002;53.296;6.600;2022-09-09T13:01:33;100923.38;;;21.09;71.40
51986;BME280;38002;53.296;6.600;2022-09-09T13:06:33;100912.31;;;21.09;71.10
